sensor_id;sensor_type;location;lat;lon;timestamp;P1;durP1;ratioP1;P2;durP2;ratioP2
16828;SDS011;8531;48.078;11.968;2023-04-08T00:00:15;7.43;;;6.63;;
16828;SDS011;8531;48.078;11.968;2023-04-08T00:02:41;7.20;;;5.85;;
16828;SDS011;8531;48.078;11.968;2023-04-08T00:05:07;9.20;;;7.18;;
16828;SDS011;8531;48.078;11.968;2023-04-08T00:07:33;8.52;;;6.20;;
16828;SDS011;8531;48.078;11.968;2023-04-08T00:10:01;8.77;;;7.30;;
16828;SDS011;8531;48.078;11.968;2023-04-08T00:12:27;7.40;;;6.57;;
16828;SDS011;8531;48.078;11.968;2023-04-08T00:14:53;8.07;;;6.60;;
16828;SDS011;8531;48.078;11.968;2023-04-08T00:17:18;8.02;;;6.43;;
16828;SDS011;8531;48.078;11.968;2023-04-08T00:19:44;9.00;;;6.43;;
16828;SDS011;8531;48.078;11.968;2023-04-08T00:22:10;8.38;;;6.32;;
16828;SDS011;8531;48.078;11.968;2023-04-08T00:24:36;9.25;;;6.68;;
16828;SDS011;8531;48.078;11.968;2023-04-08T00:27:01;7.03;;;6.32;;
16828;SDS011;8531;48.078;11.968;2023-04-08T00:29:28;9.90;;;6.47;;
16828;SDS011;8531;48.078;11.968;2023-04-08T00:31:53;9.00;;;6.10;;
16828;SDS011;8531;48.078;11.968;2023-04-08T00:34:19;7.13;;;5.78;;
16828;SDS011;8531;48.078;11.968;2023-04-08T00:36:45;6.75;;;5.70;;
16828;SDS011;8531;48.078;11.968;2023-04-08T00:39:13;6.82;;;6.07;;
16828;SDS011;8531;48.078;11.968;2023-04-08T00:41:39;6.88;;;5.43;;
16828;SDS011;8531;48.078;11.968;2023-04-08T00:44:05;7.68;;;6.38;;
16828;SDS011;8531;48.078;11.968;2023-04-08T00:46:33;6.75;;;5.25;;
16828;SDS011;8531;48.078;11.968;2023-04-08T00:49:02;9.20;;;5.85;;
16828;SDS011;8531;48.078;11.968;2023-04-08T00:51:28;7.15;;;5.78;;
16828;SDS011;8531;48.078;11.968;2023-04-08T00:53:55;7.30;;;5.60;;
16828;SDS011;8531;48.078;11.968;2023-04-08T00:56:21;8.55;;;6.10;;
16828;SDS011;8531;48.078;11.968;2023-04-08T00:58:48;6.72;;;5.30;;
16828;SDS011;8531;48.078;11.968;2023-04-08T01:01:20;9.35;;;6.13;;
16828;SDS011;8531;48.078;11.968;2023-04-08T01:06:37;5.88;;;4.55;;
16828;SDS011;8531;48.078;11.968;2023-04-08T01:09:17;8.18;;;5.60;;
16828;SDS011;8531;48.078;11.968;2023-04-08T01:11:45;6.70;;;5.45;;
16828;SDS011;8531;48.078;11.968;2023-04-08T01:14:16;8.35;;;5.55;;
16828;SDS011;8531;48.078;11.968;2023-04-08T01:16:45;6.63;;;4.88;;
16828;SDS011;8531;48.078;11.968;2023-04-08T01:19:14;9.82;;;5.53;;
16828;SDS011;8531;48.078;11.968;2023-04-08T01:21:46;7.53;;;5.35;;
16828;SDS011;8531;48.078;11.968;2023-04-08T01:24:17;6.05;;;5.03;;
16828;SDS011;8531;48.078;11.968;2023-04-08T01:26:51;5.68;;;4.47;;
16828;SDS011;8531;48.078;11.968;2023-04-08T01:29:18;6.38;;;4.20;;
16828;SDS011;8531;48.078;11.968;2023-04-08T01:31:44;6.18;;;4.90;;
16828;SDS011;8531;48.078;11.968;2023-04-08T01:34:11;7.22;;;5.00;;
16828;SDS011;8531;48.078;11.968;2023-04-08T01:36:39;8.02;;;4.88;;
16828;SDS011;8531;48.078;11.968;2023-04-08T01:39:08;5.63;;;4.80;;
16828;SDS011;8531;48.078;11.968;2023-04-08T01:41:34;7.80;;;5.25;;
16828;SDS011;8531;48.078;11.968;2023-04-08T01:44:01;7.85;;;4.88;;
16828;SDS011;8531;48.078;11.968;2023-04-08T01:46:28;7.28;;;5.35;;
16828;SDS011;8531;48.078;11.968;2023-04-08T01:48:56;4.78;;;4.28;;
16828;SDS011;8531;48.078;11.968;2023-04-08T01:51:23;10.00;;;4.70;;
16828;SDS011;8531;48.078;11.968;2023-04-08T01:53:50;6.78;;;5.35;;
16828;SDS011;8531;48.078;11.968;2023-04-08T01:56:16;7.50;;;5.18;;
16828;SDS011;8531;48.078;11.968;2023-04-08T01:58:47;4.82;;;4.18;;
16828;SDS011;8531;48.078;11.968;2023-04-08T02:01:17;7.97;;;5.25;;
16828;SDS011;8531;48.078;11.968;2023-04-08T02:03:46;6.60;;;5.00;;
16828;SDS011;8531;48.078;11.968;2023-04-08T02:06:16;7.13;;;4.90;;
16828;SDS011;8531;48.078;11.968;2023-04-08T02:08:41;7.43;;;5.18;;
16828;SDS011;8531;48.078;11.968;2023-04-08T02:11:07;5.55;;;4.47;;
16828;SDS011;8531;48.078;11.968;2023-04-08T02:13:34;6.70;;;5.00;;
16828;SDS011;8531;48.078;11.968;2023-04-08T02:16:14;5.50;;;4.68;;
16828;SDS011;8531;48.078;11.968;2023-04-08T02:18:44;6.15;;;4.90;;
16828;SDS011;8531;48.078;11.968;2023-04-08T02:21:28;6.40;;;4.97;;
16828;SDS011;8531;48.078;11.968;2023-04-08T02:23:58;7.53;;;5.50;;
16828;SDS011;8531;48.078;11.968;2023-04-08T02:26:29;7.05;;;5.50;;
16828;SDS011;8531;48.078;11.968;2023-04-08T02:28:57;10.25;;;6.05;;
16828;SDS011;8531;48.078;11.968;2023-04-08T02:31:23;5.93;;;5.32;;
16828;SDS011;8531;48.078;11.968;2023-04-08T02:33:50;8.23;;;5.80;;
16828;SDS011;8531;48.078;11.968;2023-04-08T02:36:17;6.45;;;5.50;;
16828;SDS011;8531;48.078;11.968;2023-04-08T02:38:47;7.30;;;6.20;;
16828;SDS011;8531;48.078;11.968;2023-04-08T02:41:13;6.32;;;5.68;;
16828;SDS011;8531;48.078;11.968;2023-04-08T02:43:40;6.03;;;5.13;;
16828;SDS011;8531;48.078;11.968;2023-04-08T02:46:06;7.00;;;5.68;;
16828;SDS011;8531;48.078;11.968;2023-04-08T02:48:33;8.70;;;5.85;;
16828;SDS011;8531;48.078;11.968;2023-04-08T02:50:59;6.25;;;5.28;;
16828;SDS011;8531;48.078;11.968;2023-04-08T02:53:24;7.18;;;5.95;;
16828;SDS011;8531;48.078;11.968;2023-04-08T02:55:50;7.25;;;6.15;;
16828;SDS011;8531;48.078;11.968;2023-04-08T02:58:16;6.78;;;5.80;;
16828;SDS011;8531;48.078;11.968;2023-04-08T03:00:42;6.60;;;5.22;;
16828;SDS011;8531;48.078;11.968;2023-04-08T03:03:07;10.60;;;6.70;;
16828;SDS011;8531;48.078;11.968;2023-04-08T03:05:33;6.40;;;5.57;;
16828;SDS011;8531;48.078;11.968;2023-04-08T03:07:59;7.05;;;5.60;;
16828;SDS011;8531;48.078;11.968;2023-04-08T03:10:25;8.00;;;6.28;;
16828;SDS011;8531;48.078;11.968;2023-04-08T03:12:51;8.63;;;5.82;;
16828;SDS011;8531;48.078;11.968;2023-04-08T03:15:16;9.48;;;6.35;;
16828;SDS011;8531;48.078;11.968;2023-04-08T03:17:42;7.00;;;5.72;;
16828;SDS011;8531;48.078;11.968;2023-04-08T03:20:08;7.78;;;6.22;;
16828;SDS011;8531;48.078;11.968;2023-04-08T03:22:34;9.32;;;6.10;;
16828;SDS011;8531;48.078;11.968;2023-04-08T03:25:00;8.00;;;6.10;;
16828;SDS011;8531;48.078;11.968;2023-04-08T03:27:26;6.95;;;6.07;;
16828;SDS011;8531;48.078;11.968;2023-04-08T03:29:52;5.93;;;5.32;;
16828;SDS011;8531;48.078;11.968;2023-04-08T03:32:18;8.55;;;5.82;;
16828;SDS011;8531;48.078;11.968;2023-04-08T03:34:44;7.07;;;5.82;;
16828;SDS011;8531;48.078;11.968;2023-04-08T03:37:10;7.85;;;6.22;;
16828;SDS011;8531;48.078;11.968;2023-04-08T03:39:36;8.25;;;6.57;;
16828;SDS011;8531;48.078;11.968;2023-04-08T03:42:02;6.57;;;5.53;;
16828;SDS011;8531;48.078;11.968;2023-04-08T03:44:28;6.55;;;5.70;;
16828;SDS011;8531;48.078;11.968;2023-04-08T03:46:54;7.40;;;5.88;;
16828;SDS011;8531;48.078;11.968;2023-04-08T03:49:19;8.50;;;5.82;;
16828;SDS011;8531;48.078;11.968;2023-04-08T03:51:45;8.77;;;6.45;;
16828;SDS011;8531;48.078;11.968;2023-04-08T03:54:11;9.55;;;6.82;;
16828;SDS011;8531;48.078;11.968;2023-04-08T03:56:36;9.15;;;6.45;;
16828;SDS011;8531;48.078;11.968;2023-04-08T03:59:02;8.32;;;6.57;;
16828;SDS011;8531;48.078;11.968;2023-04-08T04:01:28;8.60;;;7.13;;
16828;SDS011;8531;48.078;11.968;2023-04-08T04:03:56;7.82;;;7.00;;
16828;SDS011;8531;48.078;11.968;2023-04-08T04:06:22;8.25;;;7.10;;
16828;SDS011;8531;48.078;11.968;2023-04-08T04:08:47;8.30;;;6.75;;
16828;SDS011;8531;48.078;11.968;2023-04-08T04:11:14;9.00;;;7.40;;
16828;SDS011;8531;48.078;11.968;2023-04-08T04:13:40;9.52;;;7.05;;
16828;SDS011;8531;48.078;11.968;2023-04-08T04:16:06;9.75;;;7.35;;
16828;SDS011;8531;48.078;11.968;2023-04-08T04:18:31;9.65;;;7.43;;
16828;SDS011;8531;48.078;11.968;2023-04-08T04:20:57;8.52;;;7.13;;
16828;SDS011;8531;48.078;11.968;2023-04-08T04:23:23;9.32;;;6.95;;
16828;SDS011;8531;48.078;11.968;2023-04-08T04:25:49;10.10;;;7.53;;
16828;SDS011;8531;48.078;11.968;2023-04-08T04:28:15;10.00;;;7.38;;
16828;SDS011;8531;48.078;11.968;2023-04-08T04:30:41;7.97;;;6.88;;
16828;SDS011;8531;48.078;11.968;2023-04-08T04:33:07;10.20;;;7.30;;
16828;SDS011;8531;48.078;11.968;2023-04-08T04:35:32;9.68;;;6.90;;
16828;SDS011;8531;48.078;11.968;2023-04-08T04:37:58;21.58;;;8.00;;
16828;SDS011;8531;48.078;11.968;2023-04-08T04:40:24;11.40;;;6.95;;
16828;SDS011;8531;48.078;11.968;2023-04-08T04:42:50;8.43;;;7.25;;
16828;SDS011;8531;48.078;11.968;2023-04-08T04:47:43;8.90;;;6.78;;
16828;SDS011;8531;48.078;11.968;2023-04-08T04:50:09;10.20;;;7.28;;
16828;SDS011;8531;48.078;11.968;2023-04-08T04:52:35;9.13;;;7.28;;
16828;SDS011;8531;48.078;11.968;2023-04-08T04:55:01;8.27;;;7.43;;
16828;SDS011;8531;48.078;11.968;2023-04-08T04:57:27;8.73;;;7.40;;
16828;SDS011;8531;48.078;11.968;2023-04-08T04:59:53;9.82;;;8.07;;
16828;SDS011;8531;48.078;11.968;2023-04-08T05:02:18;11.93;;;8.05;;
16828;SDS011;8531;48.078;11.968;2023-04-08T05:04:44;10.23;;;8.10;;
16828;SDS011;8531;48.078;11.968;2023-04-08T05:07:10;10.52;;;8.63;;
16828;SDS011;8531;48.078;11.968;2023-04-08T05:09:35;9.30;;;8.30;;
16828;SDS011;8531;48.078;11.968;2023-04-08T05:12:01;10.85;;;7.88;;
16828;SDS011;8531;48.078;11.968;2023-04-08T05:14:29;9.18;;;8.13;;
16828;SDS011;8531;48.078;11.968;2023-04-08T05:16:55;10.23;;;8.23;;
16828;SDS011;8531;48.078;11.968;2023-04-08T05:19:21;11.23;;;8.07;;
16828;SDS011;8531;48.078;11.968;2023-04-08T05:21:47;10.20;;;8.35;;
16828;SDS011;8531;48.078;11.968;2023-04-08T05:24:13;9.40;;;8.40;;
16828;SDS011;8531;48.078;11.968;2023-04-08T05:26:38;11.10;;;8.68;;
16828;SDS011;8531;48.078;11.968;2023-04-08T05:29:04;12.82;;;8.57;;
16828;SDS011;8531;48.078;11.968;2023-04-08T05:31:30;10.98;;;8.27;;
16828;SDS011;8531;48.078;11.968;2023-04-08T05:33:55;11.07;;;9.70;;
16828;SDS011;8531;48.078;11.968;2023-04-08T05:36:21;11.63;;;9.05;;
16828;SDS011;8531;48.078;11.968;2023-04-08T05:38:47;11.15;;;9.23;;
16828;SDS011;8531;48.078;11.968;2023-04-08T05:41:12;12.57;;;9.13;;
16828;SDS011;8531;48.078;11.968;2023-04-08T05:43:38;12.05;;;9.45;;
16828;SDS011;8531;48.078;11.968;2023-04-08T05:46:07;10.30;;;9.18;;
16828;SDS011;8531;48.078;11.968;2023-04-08T05:48:34;12.90;;;9.68;;
16828;SDS011;8531;48.078;11.968;2023-04-08T05:51:00;9.88;;;8.68;;
16828;SDS011;8531;48.078;11.968;2023-04-08T05:53:27;13.93;;;9.20;;
16828;SDS011;8531;48.078;11.968;2023-04-08T05:55:53;11.38;;;9.05;;
16828;SDS011;8531;48.078;11.968;2023-04-08T05:58:19;10.75;;;8.68;;
16828;SDS011;8531;48.078;11.968;2023-04-08T06:00:44;14.52;;;9.52;;
16828;SDS011;8531;48.078;11.968;2023-04-08T06:03:10;13.68;;;9.02;;
16828;SDS011;8531;48.078;11.968;2023-04-08T06:05:35;12.35;;;9.90;;
16828;SDS011;8531;48.078;11.968;2023-04-08T06:08:01;12.07;;;9.38;;
16828;SDS011;8531;48.078;11.968;2023-04-08T06:10:27;13.23;;;9.70;;
16828;SDS011;8531;48.078;11.968;2023-04-08T06:12:52;12.27;;;9.20;;
16828;SDS011;8531;48.078;11.968;2023-04-08T06:15:18;14.52;;;9.32;;
16828;SDS011;8531;48.078;11.968;2023-04-08T06:17:45;13.90;;;10.18;;
16828;SDS011;8531;48.078;11.968;2023-04-08T06:20:10;10.60;;;9.50;;
16828;SDS011;8531;48.078;11.968;2023-04-08T06:22:36;12.43;;;9.70;;
16828;SDS011;8531;48.078;11.968;2023-04-08T06:25:02;14.85;;;10.38;;
16828;SDS011;8531;48.078;11.968;2023-04-08T06:27:28;14.70;;;9.88;;
16828;SDS011;8531;48.078;11.968;2023-04-08T06:29:54;12.57;;;10.15;;
16828;SDS011;8531;48.078;11.968;2023-04-08T06:32:20;11.43;;;9.80;;
16828;SDS011;8531;48.078;11.968;2023-04-08T06:34:46;11.80;;;9.57;;
16828;SDS011;8531;48.078;11.968;2023-04-08T06:37:12;10.65;;;9.40;;
16828;SDS011;8531;48.078;11.968;2023-04-08T06:39:38;11.23;;;9.57;;
16828;SDS011;8531;48.078;11.968;2023-04-08T06:42:04;11.63;;;9.60;;
16828;SDS011;8531;48.078;11.968;2023-04-08T06:44:30;12.50;;;9.60;;
16828;SDS011;8531;48.078;11.968;2023-04-08T06:46:56;11.63;;;10.13;;
16828;SDS011;8531;48.078;11.968;2023-04-08T06:49:22;11.25;;;8.55;;
16828;SDS011;8531;48.078;11.968;2023-04-08T06:51:48;11.32;;;9.70;;
16828;SDS011;8531;48.078;11.968;2023-04-08T06:54:14;11.82;;;9.77;;
16828;SDS011;8531;48.078;11.968;2023-04-08T06:56:40;12.02;;;8.90;;
16828;SDS011;8531;48.078;11.968;2023-04-08T06:59:05;11.05;;;9.68;;
16828;SDS011;8531;48.078;11.968;2023-04-08T07:01:31;11.55;;;9.80;;
16828;SDS011;8531;48.078;11.968;2023-04-08T07:03:57;13.50;;;10.52;;
16828;SDS011;8531;48.078;11.968;2023-04-08T07:06:23;11.52;;;10.05;;
16828;SDS011;8531;48.078;11.968;2023-04-08T07:08:48;11.85;;;10.25;;
16828;SDS011;8531;48.078;11.968;2023-04-08T07:11:14;13.48;;;11.27;;
16828;SDS011;8531;48.078;11.968;2023-04-08T07:13:40;12.68;;;10.57;;
16828;SDS011;8531;48.078;11.968;2023-04-08T07:16:06;14.68;;;12.10;;
16828;SDS011;8531;48.078;11.968;2023-04-08T07:18:32;14.45;;;12.27;;
16828;SDS011;8531;48.078;11.968;2023-04-08T07:20:57;12.60;;;11.27;;
16828;SDS011;8531;48.078;11.968;2023-04-08T07:23:25;14.68;;;12.18;;
16828;SDS011;8531;48.078;11.968;2023-04-08T07:25:51;13.55;;;10.98;;
16828;SDS011;8531;48.078;11.968;2023-04-08T07:28:18;12.05;;;10.77;;
16828;SDS011;8531;48.078;11.968;2023-04-08T07:30:44;12.02;;;10.45;;
16828;SDS011;8531;48.078;11.968;2023-04-08T07:33:10;13.20;;;10.73;;
16828;SDS011;8531;48.078;11.968;2023-04-08T07:35:36;13.75;;;10.20;;
16828;SDS011;8531;48.078;11.968;2023-04-08T07:38:02;9.93;;;8.63;;
16828;SDS011;8531;48.078;11.968;2023-04-08T07:40:28;9.73;;;7.93;;
16828;SDS011;8531;48.078;11.968;2023-04-08T07:42:54;10.25;;;8.10;;
16828;SDS011;8531;48.078;11.968;2023-04-08T07:45:20;10.18;;;8.45;;
16828;SDS011;8531;48.078;11.968;2023-04-08T07:47:46;12.63;;;9.00;;
16828;SDS011;8531;48.078;11.968;2023-04-08T07:50:11;10.80;;;9.45;;
16828;SDS011;8531;48.078;11.968;2023-04-08T07:52:37;11.95;;;10.00;;
16828;SDS011;8531;48.078;11.968;2023-04-08T07:55:03;10.35;;;9.05;;
16828;SDS011;8531;48.078;11.968;2023-04-08T07:57:30;10.90;;;9.20;;
16828;SDS011;8531;48.078;11.968;2023-04-08T07:59:56;11.13;;;9.48;;
16828;SDS011;8531;48.078;11.968;2023-04-08T08:02:21;12.43;;;9.30;;
16828;SDS011;8531;48.078;11.968;2023-04-08T08:04:47;12.60;;;9.80;;
16828;SDS011;8531;48.078;11.968;2023-04-08T08:07:13;11.13;;;9.45;;
16828;SDS011;8531;48.078;11.968;2023-04-08T08:09:39;10.38;;;9.27;;
16828;SDS011;8531;48.078;11.968;2023-04-08T08:12:04;11.40;;;9.07;;
16828;SDS011;8531;48.078;11.968;2023-04-08T08:14:30;11.38;;;8.63;;
16828;SDS011;8531;48.078;11.968;2023-04-08T08:16:56;11.52;;;9.38;;
16828;SDS011;8531;48.078;11.968;2023-04-08T08:19:21;11.30;;;10.10;;
16828;SDS011;8531;48.078;11.968;2023-04-08T08:21:47;10.63;;;9.52;;
16828;SDS011;8531;48.078;11.968;2023-04-08T08:24:13;10.98;;;9.38;;
16828;SDS011;8531;48.078;11.968;2023-04-08T08:26:40;10.10;;;9.02;;
16828;SDS011;8531;48.078;11.968;2023-04-08T08:29:06;11.25;;;9.70;;
16828;SDS011;8531;48.078;11.968;2023-04-08T08:31:32;12.80;;;10.15;;
16828;SDS011;8531;48.078;11.968;2023-04-08T08:33:58;12.75;;;10.32;;
16828;SDS011;8531;48.078;11.968;2023-04-08T08:36:24;11.25;;;9.30;;
16828;SDS011;8531;48.078;11.968;2023-04-08T08:38:51;11.57;;;9.45;;
16828;SDS011;8531;48.078;11.968;2023-04-08T08:41:18;12.68;;;9.57;;
16828;SDS011;8531;48.078;11.968;2023-04-08T08:43:44;11.32;;;9.32;;
16828;SDS011;8531;48.078;11.968;2023-04-08T08:46:10;11.35;;;9.85;;
16828;SDS011;8531;48.078;11.968;2023-04-08T08:48:39;12.88;;;10.00;;
16828;SDS011;8531;48.078;11.968;2023-04-08T08:51:08;14.63;;;10.13;;
16828;SDS011;8531;48.078;11.968;2023-04-08T08:53:34;12.63;;;10.30;;
16828;SDS011;8531;48.078;11.968;2023-04-08T08:56:01;12.25;;;10.02;;
16828;SDS011;8531;48.078;11.968;2023-04-08T08:58:27;11.38;;;9.75;;
16828;SDS011;8531;48.078;11.968;2023-04-08T09:00:53;12.57;;;11.27;;
16828;SDS011;8531;48.078;11.968;2023-04-08T09:03:20;11.80;;;10.25;;
16828;SDS011;8531;48.078;11.968;2023-04-08T09:05:53;14.18;;;10.93;;
16828;SDS011;8531;48.078;11.968;2023-04-08T09:08:24;15.85;;;11.15;;
16828;SDS011;8531;48.078;11.968;2023-04-08T09:10:51;13.20;;;10.93;;
16828;SDS011;8531;48.078;11.968;2023-04-08T09:13:24;22.55;;;17.20;;
16828;SDS011;8531;48.078;11.968;2023-04-08T09:18:33;13.05;;;11.02;;
16828;SDS011;8531;48.078;11.968;2023-04-08T09:21:00;13.15;;;11.10;;
16828;SDS011;8531;48.078;11.968;2023-04-08T09:26:14;13.73;;;11.40;;
16828;SDS011;8531;48.078;11.968;2023-04-08T09:28:58;13.10;;;11.32;;
16828;SDS011;8531;48.078;11.968;2023-04-08T09:31:33;15.02;;;12.00;;
16828;SDS011;8531;48.078;11.968;2023-04-08T09:34:08;12.60;;;10.82;;
16828;SDS011;8531;48.078;11.968;2023-04-08T09:36:36;14.07;;;11.43;;
16828;SDS011;8531;48.078;11.968;2023-04-08T09:39:02;13.15;;;10.73;;
16828;SDS011;8531;48.078;11.968;2023-04-08T09:41:28;12.95;;;11.02;;
16828;SDS011;8531;48.078;11.968;2023-04-08T09:43:57;14.07;;;11.10;;
16828;SDS011;8531;48.078;11.968;2023-04-08T09:51:58;12.30;;;10.05;;
16828;SDS011;8531;48.078;11.968;2023-04-08T09:54:44;12.02;;;10.40;;
16828;SDS011;8531;48.078;11.968;2023-04-08T09:57:15;12.55;;;11.07;;
16828;SDS011;8531;48.078;11.968;2023-04-08T09:59:48;14.70;;;10.73;;
16828;SDS011;8531;48.078;11.968;2023-04-08T10:02:28;12.23;;;9.73;;
16828;SDS011;8531;48.078;11.968;2023-04-08T10:04:56;12.35;;;9.77;;
16828;SDS011;8531;48.078;11.968;2023-04-08T10:07:24;10.90;;;9.48;;
16828;SDS011;8531;48.078;11.968;2023-04-08T10:09:49;12.40;;;10.70;;
16828;SDS011;8531;48.078;11.968;2023-04-08T10:12:16;12.23;;;9.45;;
16828;SDS011;8531;48.078;11.968;2023-04-08T10:15:01;12.82;;;11.13;;
16828;SDS011;8531;48.078;11.968;2023-04-08T10:17:46;12.23;;;9.02;;
16828;SDS011;8531;48.078;11.968;2023-04-08T10:23:16;10.98;;;9.57;;
16828;SDS011;8531;48.078;11.968;2023-04-08T10:25:43;12.73;;;9.45;;
16828;SDS011;8531;48.078;11.968;2023-04-08T10:33:09;10.57;;;9.00;;
16828;SDS011;8531;48.078;11.968;2023-04-08T10:36:11;10.85;;;9.35;;
16828;SDS011;8531;48.078;11.968;2023-04-08T10:38:37;10.35;;;9.25;;
16828;SDS011;8531;48.078;11.968;2023-04-08T10:41:03;11.38;;;9.77;;
16828;SDS011;8531;48.078;11.968;2023-04-08T10:43:32;11.05;;;9.73;;
16828;SDS011;8531;48.078;11.968;2023-04-08T10:45:59;13.02;;;10.23;;
16828;SDS011;8531;48.078;11.968;2023-04-08T10:48:26;10.75;;;9.65;;
16828;SDS011;8531;48.078;11.968;2023-04-08T10:50:57;12.40;;;10.10;;
16828;SDS011;8531;48.078;11.968;2023-04-08T10:53:27;11.43;;;9.40;;
16828;SDS011;8531;48.078;11.968;2023-04-08T10:55:54;11.65;;;9.63;;
16828;SDS011;8531;48.078;11.968;2023-04-08T10:58:27;10.88;;;9.70;;
16828;SDS011;8531;48.078;11.968;2023-04-08T11:00:54;11.60;;;9.02;;
16828;SDS011;8531;48.078;11.968;2023-04-08T11:03:20;12.15;;;10.18;;
16828;SDS011;8531;48.078;11.968;2023-04-08T11:05:46;11.95;;;10.40;;
16828;SDS011;8531;48.078;11.968;2023-04-08T11:08:13;12.68;;;10.25;;
16828;SDS011;8531;48.078;11.968;2023-04-08T11:10:39;13.75;;;11.07;;
16828;SDS011;8531;48.078;11.968;2023-04-08T11:13:08;11.35;;;10.25;;
16828;SDS011;8531;48.078;11.968;2023-04-08T11:15:36;12.38;;;10.65;;
16828;SDS011;8531;48.078;11.968;2023-04-08T11:18:03;12.32;;;10.45;;
16828;SDS011;8531;48.078;11.968;2023-04-08T11:20:30;11.82;;;10.63;;
16828;SDS011;8531;48.078;11.968;2023-04-08T11:23:00;11.13;;;10.02;;
16828;SDS011;8531;48.078;11.968;2023-04-08T11:25:26;13.65;;;10.70;;
16828;SDS011;8531;48.078;11.968;2023-04-08T11:27:52;11.63;;;10.50;;
16828;SDS011;8531;48.078;11.968;2023-04-08T11:30:18;12.00;;;10.73;;
16828;SDS011;8531;48.078;11.968;2023-04-08T11:32:45;12.25;;;10.77;;
16828;SDS011;8531;48.078;11.968;2023-04-08T11:35:11;13.88;;;10.93;;
16828;SDS011;8531;48.078;11.968;2023-04-08T11:37:37;11.50;;;10.23;;
16828;SDS011;8531;48.078;11.968;2023-04-08T11:40:09;11.68;;;10.48;;
16828;SDS011;8531;48.078;11.968;2023-04-08T11:42:36;12.57;;;10.45;;
16828;SDS011;8531;48.078;11.968;2023-04-08T11:45:09;11.45;;;10.25;;
16828;SDS011;8531;48.078;11.968;2023-04-08T11:47:36;11.50;;;10.40;;
16828;SDS011;8531;48.078;11.968;2023-04-08T11:50:02;12.25;;;10.93;;
16828;SDS011;8531;48.078;11.968;2023-04-08T11:52:48;11.95;;;10.55;;
16828;SDS011;8531;48.078;11.968;2023-04-08T11:55:24;11.13;;;10.02;;
16828;SDS011;8531;48.078;11.968;2023-04-08T11:58:04;14.52;;;11.80;;
16828;SDS011;8531;48.078;11.968;2023-04-08T12:00:31;11.88;;;10.25;;
16828;SDS011;8531;48.078;11.968;2023-04-08T12:02:57;11.38;;;10.13;;
16828;SDS011;8531;48.078;11.968;2023-04-08T12:05:23;11.13;;;10.00;;
16828;SDS011;8531;48.078;11.968;2023-04-08T12:07:48;13.80;;;12.27;;
16828;SDS011;8531;48.078;11.968;2023-04-08T12:10:14;12.90;;;11.15;;
16828;SDS011;8531;48.078;11.968;2023-04-08T12:12:40;13.93;;;10.05;;
16828;SDS011;8531;48.078;11.968;2023-04-08T12:15:06;10.75;;;9.65;;
16828;SDS011;8531;48.078;11.968;2023-04-08T12:17:32;12.05;;;10.50;;
16828;SDS011;8531;48.078;11.968;2023-04-08T12:19:59;11.00;;;9.73;;
16828;SDS011;8531;48.078;11.968;2023-04-08T12:22:25;10.68;;;9.43;;
16828;SDS011;8531;48.078;11.968;2023-04-08T12:24:51;9.95;;;8.95;;
16828;SDS011;8531;48.078;11.968;2023-04-08T12:27:16;10.48;;;9.38;;
16828;SDS011;8531;48.078;11.968;2023-04-08T12:29:42;9.73;;;8.65;;
16828;SDS011;8531;48.078;11.968;2023-04-08T12:32:08;9.43;;;8.48;;
16828;SDS011;8531;48.078;11.968;2023-04-08T12:34:34;9.55;;;8.55;;
16828;SDS011;8531;48.078;11.968;2023-04-08T12:36:59;9.32;;;8.30;;
16828;SDS011;8531;48.078;11.968;2023-04-08T12:39:26;8.40;;;7.53;;
16828;SDS011;8531;48.078;11.968;2023-04-08T12:41:52;11.15;;;8.45;;
16828;SDS011;8531;48.078;11.968;2023-04-08T12:44:18;9.05;;;8.15;;
16828;SDS011;8531;48.078;11.968;2023-04-08T12:46:44;8.15;;;7.35;;
16828;SDS011;8531;48.078;11.968;2023-04-08T12:49:10;9.13;;;8.18;;
16828;SDS011;8531;48.078;11.968;2023-04-08T12:51:36;9.15;;;7.55;;
16828;SDS011;8531;48.078;11.968;2023-04-08T12:54:02;9.15;;;7.50;;
16828;SDS011;8531;48.078;11.968;2023-04-08T12:56:29;9.23;;;8.27;;
16828;SDS011;8531;48.078;11.968;2023-04-08T12:58:55;8.43;;;7.63;;
16828;SDS011;8531;48.078;11.968;2023-04-08T13:01:21;11.10;;;8.85;;
16828;SDS011;8531;48.078;11.968;2023-04-08T13:03:47;10.65;;;9.43;;
16828;SDS011;8531;48.078;11.968;2023-04-08T13:06:13;8.77;;;7.88;;
16828;SDS011;8531;48.078;11.968;2023-04-08T13:08:39;10.93;;;7.97;;
16828;SDS011;8531;48.078;11.968;2023-04-08T13:11:06;10.55;;;8.52;;
16828;SDS011;8531;48.078;11.968;2023-04-08T13:13:32;9.48;;;7.70;;
16828;SDS011;8531;48.078;11.968;2023-04-08T13:15:58;9.13;;;8.18;;
16828;SDS011;8531;48.078;11.968;2023-04-08T13:18:24;9.00;;;7.60;;
16828;SDS011;8531;48.078;11.968;2023-04-08T13:20:50;8.60;;;7.80;;
16828;SDS011;8531;48.078;11.968;2023-04-08T13:23:16;11.05;;;9.70;;
16828;SDS011;8531;48.078;11.968;2023-04-08T13:25:42;12.57;;;8.00;;
16828;SDS011;8531;48.078;11.968;2023-04-08T13:28:09;8.55;;;7.10;;
16828;SDS011;8531;48.078;11.968;2023-04-08T13:30:35;7.78;;;6.90;;
16828;SDS011;8531;48.078;11.968;2023-04-08T13:33:02;8.77;;;7.82;;
16828;SDS011;8531;48.078;11.968;2023-04-08T13:35:28;9.27;;;8.38;;
16828;SDS011;8531;48.078;11.968;2023-04-08T13:37:53;8.15;;;7.25;;
16828;SDS011;8531;48.078;11.968;2023-04-08T13:40:20;9.20;;;8.23;;
16828;SDS011;8531;48.078;11.968;2023-04-08T13:42:46;10.43;;;8.35;;
16828;SDS011;8531;48.078;11.968;2023-04-08T13:45:12;9.70;;;8.38;;
16828;SDS011;8531;48.078;11.968;2023-04-08T13:47:38;9.68;;;7.80;;
16828;SDS011;8531;48.078;11.968;2023-04-08T13:50:04;9.32;;;8.35;;
16828;SDS011;8531;48.078;11.968;2023-04-08T13:52:31;11.43;;;10.23;;
16828;SDS011;8531;48.078;11.968;2023-04-08T13:54:57;10.05;;;8.60;;
16828;SDS011;8531;48.078;11.968;2023-04-08T13:57:22;10.68;;;8.60;;
16828;SDS011;8531;48.078;11.968;2023-04-08T13:59:48;8.20;;;7.40;;
16828;SDS011;8531;48.078;11.968;2023-04-08T14:02:14;8.13;;;7.32;;
16828;SDS011;8531;48.078;11.968;2023-04-08T14:04:39;10.63;;;9.52;;
16828;SDS011;8531;48.078;11.968;2023-04-08T14:07:05;9.80;;;8.57;;
16828;SDS011;8531;48.078;11.968;2023-04-08T14:09:31;8.90;;;8.00;;
16828;SDS011;8531;48.078;11.968;2023-04-08T14:11:57;10.60;;;8.63;;
16828;SDS011;8531;48.078;11.968;2023-04-08T14:14:23;9.70;;;8.40;;
16828;SDS011;8531;48.078;11.968;2023-04-08T14:16:49;8.68;;;7.72;;
16828;SDS011;8531;48.078;11.968;2023-04-08T14:19:15;10.40;;;9.10;;
16828;SDS011;8531;48.078;11.968;2023-04-08T14:21:40;10.05;;;9.00;;
16828;SDS011;8531;48.078;11.968;2023-04-08T14:24:06;10.65;;;9.32;;
16828;SDS011;8531;48.078;11.968;2023-04-08T14:26:32;8.65;;;7.47;;
16828;SDS011;8531;48.078;11.968;2023-04-08T14:29:01;9.55;;;8.57;;
16828;SDS011;8531;48.078;11.968;2023-04-08T14:31:28;9.80;;;8.77;;
16828;SDS011;8531;48.078;11.968;2023-04-08T14:33:53;10.15;;;8.63;;
16828;SDS011;8531;48.078;11.968;2023-04-08T14:36:19;10.10;;;8.43;;
16828;SDS011;8531;48.078;11.968;2023-04-08T14:38:45;9.77;;;8.35;;
16828;SDS011;8531;48.078;11.968;2023-04-08T14:41:10;10.18;;;8.55;;
16828;SDS011;8531;48.078;11.968;2023-04-08T14:43:36;9.82;;;8.30;;
16828;SDS011;8531;48.078;11.968;2023-04-08T14:46:02;9.73;;;8.40;;
16828;SDS011;8531;48.078;11.968;2023-04-08T14:48:27;11.13;;;9.93;;
16828;SDS011;8531;48.078;11.968;2023-04-08T14:50:54;12.45;;;9.60;;
16828;SDS011;8531;48.078;11.968;2023-04-08T14:53:21;13.68;;;12.07;;
16828;SDS011;8531;48.078;11.968;2023-04-08T14:55:47;10.70;;;9.60;;
16828;SDS011;8531;48.078;11.968;2023-04-08T14:58:13;14.95;;;10.95;;
16828;SDS011;8531;48.078;11.968;2023-04-08T15:00:39;11.25;;;9.75;;